Time;durP1;ratioP1;P1;durP2;ratioP2;P2;SDS_P1;SDS_P2;PMS_P1;PMS_P2;Temp;Humidity;BMP_temperature;BMP_pressure;BME280_temperature;BME280_humidity;BME280_pressure;Samples;Min_cycle;Max_cycle;Signal;HPM_P1;HPM_P2
2023/05/13 00:01:37;;;;;;;4.05;2.53;;;21.20;66.00;;;;;;5072521;28;20086;-66
2023/05/13 00:04:06;;;;;;;5.32;2.70;;;21.20;66.00;;;;;;5072268;28;20094;-66
2023/05/13 00:06:32;;;;;;;7.38;2.95;;;21.10;65.90;;;;;;5072593;28;20107;-66
2023/05/13 00:09:01;;;;;;;4.25;2.60;;;21.10;65.90;;;;;;5073026;28;20530;-66
2023/05/13 00:11:26;;;;;;;3.97;2.63;;;21.10;65.80;;;;;;5070459;28;20055;-66
2023/05/13 00:13:52;;;;;;;4.35;2.75;;;21.10;65.80;;;;;;5072819;28;20041;-66
2023/05/13 00:16:17;;;;;;;5.78;2.80;;;21.10;65.80;;;;;;5072329;28;20070;-66
2023/05/13 00:18:43;;;;;;;6.18;3.38;;;21.10;65.80;;;;;;5070600;28;20052;-66
2023/05/13 00:21:09;;;;;;;4.93;2.78;;;21.10;65.70;;;;;;5072620;28;20119;-66
2023/05/13 00:23:34;;;;;;;5.55;3.40;;;21.10;65.70;;;;;;5071518;28;20055;-65
2023/05/13 00:26:00;;;;;;;5.10;2.40;;;21.10;65.70;;;;;;5070589;28;20056;-66
2023/05/13 00:28:26;;;;;;;4.63;2.65;;;21.10;65.60;;;;;;5072332;28;20050;-66
2023/05/13 00:30:51;;;;;;;5.80;2.95;;;21.10;66.10;;;;;;5072326;28;20369;-66
2023/05/13 00:33:17;;;;;;;4.70;2.80;;;21.10;65.60;;;;;;5070035;28;20045;-66
2023/05/13 00:35:42;;;;;;;6.18;3.00;;;21.10;65.50;;;;;;5072655;28;20045;-66
2023/05/13 00:38:08;;;;;;;4.15;2.83;;;21.00;65.50;;;;;;5072149;28;20037;-66
2023/05/13 00:40:36;;;;;;;4.30;2.80;;;21.00;65.40;;;;;;5070408;28;20041;-67
2023/05/13 00:43:02;;;;;;;4.80;3.03;;;21.00;65.40;;;;;;5071282;28;20045;-66
2023/05/13 00:45:27;;;;;;;4.07;2.95;;;21.00;65.40;;;;;;5071594;28;20110;-66
2023/05/13 00:47:53;;;;;;;5.60;2.78;;;21.00;65.40;;;;;;5072269;28;20036;-66
2023/05/13 00:50:18;;;;;;;5.13;3.00;;;21.00;65.40;;;;;;5070648;28;20045;-66
2023/05/13 00:52:44;;;;;;;4.85;2.50;;;21.00;65.30;;;;;;5071804;28;20041;-65
2023/05/13 00:55:09;;;;;;;3.35;2.60;;;21.00;65.40;;;;;;5070921;28;20082;-66
2023/05/13 00:57:36;;;;;;;3.42;2.65;;;21.00;65.30;;;;;;5072413;28;20044;-66
2023/05/13 01:00:02;;;;;;;5.88;2.83;;;21.00;65.30;;;;;;5071232;28;20444;-66
2023/05/13 01:02:52;;;;;;;5.82;3.03;;;21.00;65.30;;;;;;5070885;28;20049;-66
2023/05/13 01:05:36;;;;;;;4.25;3.00;;;21.00;65.20;;;;;;5070613;28;20496;-66
2023/05/13 01:08:19;;;;;;;4.18;2.70;;;21.00;65.20;;;;;;5071508;28;20044;-65
2023/05/13 01:10:50;;;;;;;5.28;3.42;;;21.00;65.10;;;;;;5070830;28;20037;-66
2023/05/13 01:13:19;;;;;;;5.10;2.95;;;21.00;65.20;;;;;;5070896;28;20535;-66
2023/05/13 01:15:47;;;;;;;5.43;2.97;;;21.00;65.10;;;;;;5053997;28;20056;-66
2023/05/13 01:18:17;;;;;;;5.25;3.00;;;21.00;65.10;;;;;;5071020;28;20115;-66
2023/05/13 01:20:43;;;;;;;4.88;2.60;;;20.90;65.00;;;;;;5073982;28;20048;-66
2023/05/13 01:23:12;;;;;;;4.72;2.75;;;20.90;65.00;;;;;;5057417;28;20106;-66
2023/05/13 01:25:38;;;;;;;3.80;2.58;;;20.90;65.00;;;;;;5075823;28;20510;-66
2023/05/13 01:28:05;;;;;;;4.93;2.80;;;20.90;65.00;;;;;;5075065;28;20102;-66
2023/05/13 01:30:30;;;;;;;3.38;2.50;;;20.90;64.90;;;;;;5075714;28;20052;-66
2023/05/13 01:32:56;;;;;;;4.72;2.75;;;20.90;64.80;;;;;;5074266;28;20036;-66
2023/05/13 01:35:21;;;;;;;5.53;2.92;;;20.90;64.80;;;;;;5072031;28;20068;-66
2023/05/13 01:37:47;;;;;;;4.72;2.90;;;20.90;64.80;;;;;;5074460;28;20040;-66
2023/05/13 01:40:13;;;;;;;3.70;2.90;;;20.90;64.80;;;;;;5057249;28;20044;-66
2023/05/13 01:42:38;;;;;;;4.32;2.80;;;20.90;64.80;;;;;;5057107;28;20047;-66
2023/05/13 01:45:05;;;;;;;4.32;3.00;;;20.90;64.70;;;;;;5075294;28;20089;-66
2023/05/13 01:47:31;;;;;;;3.97;2.55;;;20.90;64.70;;;;;;5073665;28;20097;-66
2023/05/13 01:49:56;;;;;;;5.55;3.00;;;20.90;64.70;;;;;;5073800;28;20044;-66
2023/05/13 01:52:22;;;;;;;4.47;2.95;;;20.90;64.70;;;;;;5074781;28;20051;-66
2023/05/13 01:54:48;;;;;;;4.35;3.00;;;20.90;64.70;;;;;;5074326;28;20483;-66
2023/05/13 01:57:13;;;;;;;4.40;2.60;;;20.90;64.60;;;;;;5073156;28;20469;-66
2023/05/13 01:59:39;;;;;;;5.20;2.70;;;20.90;64.60;;;;;;5075175;28;20071;-66
2023/05/13 02:02:04;;;;;;;3.45;2.63;;;20.80;64.60;;;;;;5058106;28;20045;-66
2023/05/13 02:04:30;;;;;;;4.25;3.17;;;20.80;64.60;;;;;;5070711;28;20040;-66
2023/05/13 02:06:56;;;;;;;3.95;2.85;;;20.80;64.50;;;;;;5073514;28;20044;-66
2023/05/13 02:09:21;;;;;;;3.97;2.90;;;20.80;64.60;;;;;;5074971;28;20076;-66
2023/05/13 02:11:47;;;;;;;3.55;2.60;;;20.80;64.50;;;;;;5074385;28;20487;-66
2023/05/13 02:14:13;;;;;;;4.47;2.70;;;20.80;64.50;;;;;;5074649;28;20404;-66
2023/05/13 02:16:38;;;;;;;3.75;2.70;;;20.80;64.50;;;;;;5074596;28;20041;-66
2023/05/13 02:19:04;;;;;;;4.20;2.72;;;20.80;64.50;;;;;;5074131;28;20369;-66
2023/05/13 02:21:30;;;;;;;3.75;2.75;;;20.80;64.50;;;;;;5074363;28;20037;-66
2023/05/13 02:23:55;;;;;;;3.17;2.63;;;20.80;64.50;;;;;;5074541;28;20048;-66
2023/05/13 02:26:21;;;;;;;4.15;3.00;;;20.80;64.40;;;;;;5074127;28;20060;-66
2023/05/13 02:28:47;;;;;;;3.10;2.40;;;20.80;64.40;;;;;;5074472;28;20407;-66
2023/05/13 02:31:12;;;;;;;3.65;2.50;;;20.80;64.40;;;;;;5073349;28;20068;-66
2023/05/13 02:33:38;;;;;;;5.47;2.88;;;20.80;64.40;;;;;;5073345;28;20047;-66
2023/05/13 02:36:03;;;;;;;4.65;2.72;;;20.80;64.40;;;;;;5073428;28;20435;-66
2023/05/13 02:38:29;;;;;;;3.80;2.63;;;20.80;64.40;;;;;;5073395;28;20400;-66
2023/05/13 02:40:55;;;;;;;3.83;2.53;;;20.70;64.40;;;;;;5074647;28;20063;-66
2023/05/13 02:43:22;;;;;;;4.20;2.50;;;20.80;64.40;;;;;;5074039;28;20037;-66
2023/05/13 02:45:47;;;;;;;4.10;2.70;;;20.80;64.40;;;;;;5072648;28;20048;-66
2023/05/13 02:48:13;;;;;;;5.68;2.85;;;20.70;64.40;;;;;;5073689;28;20045;-66
2023/05/13 02:50:39;;;;;;;4.00;2.55;;;20.70;64.40;;;;;;5073042;28;20045;-66
2023/05/13 02:53:05;;;;;;;3.80;2.67;;;20.70;64.40;;;;;;5073611;28;20101;-66
2023/05/13 02:55:31;;;;;;;4.72;2.90;;;20.70;64.40;;;;;;5074047;28;20385;-66
2023/05/13 02:57:57;;;;;;;4.43;3.33;;;20.70;64.30;;;;;;5074312;28;20045;-66
2023/05/13 03:00:22;;;;;;;4.07;2.70;;;20.70;64.30;;;;;;5073087;28;20051;-66
2023/05/13 03:02:48;;;;;;;3.75;2.60;;;20.70;64.30;;;;;;5073626;28;20037;-66
2023/05/13 03:05:13;;;;;;;4.30;2.90;;;20.70;64.20;;;;;;5073597;28;20076;-66
2023/05/13 03:07:39;;;;;;;3.90;2.92;;;20.70;64.20;;;;;;5073323;28;20076;-66
2023/05/13 03:10:05;;;;;;;5.07;2.95;;;20.70;64.20;;;;;;5073963;28;20132;-66
2023/05/13 03:12:30;;;;;;;4.25;2.63;;;20.70;64.20;;;;;;5073025;28;20044;-66
2023/05/13 03:14:56;;;;;;;4.97;2.65;;;20.70;64.20;;;;;;5071584;28;20396;-66
2023/05/13 03:17:22;;;;;;;5.57;2.95;;;20.70;64.20;;;;;;5073269;28;20068;-66
2023/05/13 03:19:47;;;;;;;4.07;2.80;;;20.70;64.10;;;;;;5072365;28;20048;-66
2023/05/13 03:22:13;;;;;;;3.75;2.40;;;20.70;64.10;;;;;;5071401;28;20063;-66
2023/05/13 03:24:38;;;;;;;3.17;2.53;;;20.70;64.10;;;;;;5072353;28;20524;-65
2023/05/13 03:27:04;;;;;;;3.85;2.53;;;20.70;64.10;;;;;;5073179;28;20049;-66
2023/05/13 03:29:30;;;;;;;3.53;2.60;;;20.60;64.00;;;;;;5070844;28;20040;-66
2023/05/13 03:31:55;;;;;;;3.70;2.88;;;20.60;64.10;;;;;;5073342;28;20044;-66
2023/05/13 03:34:21;;;;;;;5.00;3.40;;;20.60;64.00;;;;;;5072460;28;20040;-66
2023/05/13 03:36:46;;;;;;;3.67;2.80;;;20.60;64.00;;;;;;5073360;28;20044;-66
2023/05/13 03:39:12;;;;;;;3.90;2.97;;;20.60;64.00;;;;;;5073199;28;20139;-66
2023/05/13 03:41:37;;;;;;;4.50;2.67;;;20.60;63.90;;;;;;5071676;28;20083;-66
2023/05/13 03:44:03;;;;;;;4.47;2.80;;;20.60;63.90;;;;;;5073123;28;20052;-66
2023/05/13 03:46:29;;;;;;;3.17;2.60;;;20.60;63.90;;;;;;5072633;28;20127;-66
2023/05/13 03:48:54;;;;;;;4.55;3.10;;;20.60;63.90;;;;;;5072285;28;20120;-66
2023/05/13 03:51:21;;;;;;;3.35;2.72;;;20.60;63.90;;;;;;5072840;28;20044;-66
2023/05/13 03:53:46;;;;;;;3.90;2.67;;;20.60;63.90;;;;;;5073151;28;20076;-66
2023/05/13 03:56:12;;;;;;;4.25;2.63;;;20.60;63.90;;;;;;5070982;28;20076;-66
2023/05/13 03:58:38;;;;;;;4.22;3.08;;;20.60;63.90;;;;;;5072923;28;20519;-65
2023/05/13 04:01:03;;;;;;;4.38;2.55;;;20.60;63.80;;;;;;5067238;28;20037;-65
2023/05/13 04:03:30;;;;;;;4.95;2.80;;;20.60;63.80;;;;;;5065311;28;20048;-66
2023/05/13 04:05:55;;;;;;;4.05;2.90;;;20.60;63.80;;;;;;5072689;28;20037;-65
2023/05/13 04:08:21;;;;;;;3.47;2.42;;;20.60;63.70;;;;;;5071778;28;20127;-66
2023/05/13 04:10:47;;;;;;;3.88;2.45;;;20.50;63.70;;;;;;5072200;28;20052;-66
2023/05/13 04:13:12;;;;;;;4.43;2.60;;;20.60;63.80;;;;;;5072427;28;20048;-66
2023/05/13 04:15:38;;;;;;;3.70;2.70;;;20.50;63.70;;;;;;5072924;28;20041;-66
2023/05/13 04:18:03;;;;;;;3.88;2.42;;;20.50;63.70;;;;;;5072001;28;20064;-66
2023/05/13 04:20:29;;;;;;;4.35;2.80;;;20.50;63.70;;;;;;5071083;28;20041;-66
2023/05/13 04:22:55;;;;;;;5.28;2.88;;;20.50;63.70;;;;;;5072905;28;20095;-66
2023/05/13 04:25:20;;;;;;;4.25;2.67;;;20.50;63.70;;;;;;5070417;28;20040;-66
2023/05/13 04:27:46;;;;;;;3.60;2.78;;;20.50;63.70;;;;;;5071732;28;20052;-66
2023/05/13 04:30:12;;;;;;;5.45;3.00;;;20.50;63.60;;;;;;5072379;28;20080;-66
2023/05/13 04:32:38;;;;;;;3.60;2.60;;;20.50;63.60;;;;;;5071818;28;20040;-66
2023/05/13 04:35:04;;;;;;;3.75;2.40;;;20.50;64.20;;;;;;5072569;28;20040;-66
2023/05/13 04:37:29;;;;;;;2.90;2.40;;;20.50;63.60;;;;;;5072065;28;20521;-66
2023/05/13 04:39:55;;;;;;;4.38;2.67;;;20.50;63.60;;;;;;5071884;28;20038;-66
2023/05/13 04:42:20;;;;;;;5.57;3.00;;;20.50;63.60;;;;;;5070871;28;20044;-66
2023/05/13 04:44:46;;;;;;;4.03;2.75;;;20.50;63.60;;;;;;5071602;28;20040;-66
2023/05/13 04:47:11;;;;;;;3.85;2.50;;;20.50;63.60;;;;;;5070812;28;20105;-66
2023/05/13 04:49:37;;;;;;;3.35;2.38;;;20.50;63.60;;;;;;5072458;28;20083;-66
2023/05/13 04:52:03;;;;;;;3.38;2.65;;;20.50;63.60;;;;;;5071581;28;20169;-66
2023/05/13 04:54:28;;;;;;;4.35;2.78;;;20.50;63.60;;;;;;5076303;28;20375;-66
2023/05/13 04:56:54;;;;;;;3.40;2.42;;;20.50;63.70;;;;;;5075476;28;20476;-66
2023/05/13 04:59:19;;;;;;;5.78;2.78;;;20.50;63.70;;;;;;5074346;28;20047;-66
2023/05/13 05:01:45;;;;;;;3.67;2.83;;;20.50;63.70;;;;;;5075166;28;20047;-66
2023/05/13 05:04:11;;;;;;;3.42;2.33;;;20.50;63.70;;;;;;5075891;28;20124;-66
2023/05/13 05:06:37;;;;;;;4.65;2.75;;;20.50;63.80;;;;;;5074144;28;20044;-66
2023/05/13 05:09:02;;;;;;;4.22;2.60;;;20.50;63.90;;;;;;5076283;28;20395;-66
2023/05/13 05:11:28;;;;;;;5.50;2.60;;;20.50;64.00;;;;;;5074262;28;20389;-66
2023/05/13 05:13:53;;;;;;;3.58;2.78;;;20.50;64.00;;;;;;5075239;28;20043;-66
2023/05/13 05:16:19;;;;;;;4.10;2.78;;;20.50;64.10;;;;;;5075513;28;20484;-66
2023/05/13 05:18:44;;;;;;;2.83;2.50;;;20.50;64.30;;;;;;5075843;28;20113;-65
2023/05/13 05:21:10;;;;;;;5.47;3.00;;;20.50;64.40;;;;;;5074586;28;20087;-66
2023/05/13 05:23:35;;;;;;;3.58;2.50;;;20.50;64.50;;;;;;5075633;28;20048;-66
2023/05/13 05:26:02;;;;;;;3.58;2.72;;;20.50;64.40;;;;;;5074423;28;20052;-66
2023/05/13 05:28:28;;;;;;;4.55;2.80;;;20.50;64.40;;;;;;5073076;28;20526;-65
2023/05/13 05:30:53;;;;;;;4.65;2.80;;;20.50;64.30;;;;;;5074312;28;20072;-65
2023/05/13 05:33:19;;;;;;;4.07;3.08;;;20.50;64.40;;;;;;5074306;28;20041;-66
2023/05/13 05:35:44;;;;;;;3.72;2.78;;;20.50;64.40;;;;;;5073583;28;20054;-66
2023/05/13 05:38:11;;;;;;;4.95;2.50;;;20.50;64.30;;;;;;5075374;28;20043;-66
2023/05/13 05:40:39;;;;;;;3.63;2.53;;;20.50;64.30;;;;;;5074290;28;20033;-66
2023/05/13 05:43:04;;;;;;;;;;;20.50;64.30;;;;;;5075352;28;20045;-66
2023/05/13 05:45:30;;;;;;;3.90;2.78;;;20.50;64.40;;;;;;5073904;28;19978;-66
2023/05/13 05:47:56;;;;;;;3.10;2.70;;;20.50;64.40;;;;;;5073185;28;20090;-66
2023/05/13 05:50:22;;;;;;;6.03;2.97;;;20.50;64.40;;;;;;5073404;28;20559;-65
2023/05/13 05:52:48;;;;;;;4.47;2.50;;;20.50;64.40;;;;;;5075389;28;20111;-65
2023/05/13 05:55:14;;;;;;;4.22;2.78;;;20.50;64.30;;;;;;5074021;28;20888;-66
2023/05/13 05:57:39;;;;;;;4.97;2.85;;;20.50;64.20;;;;;;5075150;28;20040;-66
2023/05/13 06:00:07;;;;;;;4.45;2.63;;;20.60;64.20;;;;;;5073478;28;20106;-65
2023/05/13 06:02:33;;;;;;;4.55;2.78;;;20.60;64.70;;;;;;5074511;28;20028;-66
2023/05/13 06:04:58;;;;;;;4.80;2.97;;;20.60;64.10;;;;;;5072950;28;20047;-65
2023/05/13 06:07:24;;;;;;;4.40;3.00;;;20.60;64.10;;;;;;5075055;28;20044;-65
2023/05/13 06:09:50;;;;;;;3.70;2.60;;;20.70;64.10;;;;;;5073111;28;20068;-66
2023/05/13 06:12:15;;;;;;;6.55;2.88;;;20.70;64.20;;;;;;5073333;28;20098;-66
2023/05/13 06:14:41;;;;;;;4.18;2.75;;;20.70;64.20;;;;;;5075100;28;20040;-66
2023/05/13 06:17:06;;;;;;;5.85;2.80;;;20.70;64.20;;;;;;5072529;28;20044;-65
2023/05/13 06:19:32;;;;;;;6.88;2.92;;;20.70;64.20;;;;;;5075002;28;20047;-65
2023/05/13 06:21:57;;;;;;;4.40;3.30;;;20.70;64.20;;;;;;5073523;28;20041;-65
2023/05/13 06:24:23;;;;;;;4.43;3.00;;;20.70;64.20;;;;;;5072516;28;20044;-66
2023/05/13 06:26:48;;;;;;;5.63;3.33;;;20.80;64.20;;;;;;5073311;28;20060;-65
2023/05/13 06:29:14;;;;;;;5.00;3.13;;;20.70;64.20;;;;;;5074388;28;20040;-66
2023/05/13 06:31:39;;;;;;;8.68;3.28;;;20.70;64.20;;;;;;5072550;28;20045;-66
2023/05/13 06:34:05;;;;;;;5.97;3.17;;;20.80;64.20;;;;;;5073162;28;20043;-66
2023/05/13 06:36:30;;;;;;;4.30;2.70;;;20.80;64.30;;;;;;5074354;28;20048;-67
2023/05/13 06:38:56;;;;;;;6.25;3.58;;;20.80;64.30;;;;;;5073202;28;20032;-65
2023/05/13 06:41:22;;;;;;;5.60;2.75;;;20.80;64.30;;;;;;5074366;28;20498;-65
2023/05/13 06:43:47;;;;;;;4.13;2.72;;;20.80;64.20;;;;;;5074177;28;20059;-65
2023/05/13 06:46:13;;;;;;;5.47;3.35;;;20.80;64.30;;;;;;5073458;28;20609;-65
2023/05/13 06:48:39;;;;;;;3.80;2.80;;;20.80;64.30;;;;;;5073193;28;20036;-66
2023/05/13 06:51:05;;;;;;;3.63;2.83;;;20.80;64.30;;;;;;5074119;28;20044;-66
2023/05/13 06:53:33;;;;;;;4.07;2.80;;;20.90;64.40;;;;;;5073271;28;20037;-66
2023/05/13 06:55:59;;;;;;;3.78;2.63;;;20.90;64.50;;;;;;5074238;28;20045;-65
2023/05/13 06:58:24;;;;;;;5.00;3.17;;;20.90;64.50;;;;;;5073136;28;20037;-65
2023/05/13 07:00:50;;;;;;;6.43;2.90;;;20.90;64.60;;;;;;5073788;28;20136;-65
2023/05/13 07:03:16;;;;;;;7.47;3.00;;;20.90;64.60;;;;;;5072203;28;20033;-65
2023/05/13 07:05:42;;;;;;;4.78;3.10;;;20.90;64.70;;;;;;5072537;28;20124;-68
2023/05/13 07:08:08;;;;;;;4.45;3.10;;;20.90;64.70;;;;;;5088592;28;20101;-66
2023/05/13 07:10:34;;;;;;;4.63;3.05;;;20.90;64.70;;;;;;5093653;28;20044;-66
2023/05/13 07:13:00;;;;;;;6.50;3.22;;;20.90;64.90;;;;;;5074827;28;20036;-66
2023/05/13 07:15:26;;;;;;;6.15;3.10;;;20.90;64.90;;;;;;5072556;28;20087;-66
2023/05/13 07:17:52;;;;;;;4.25;3.10;;;21.00;65.60;;;;;;5070981;28;20064;-66
2023/05/13 07:20:20;;;;;;;6.13;3.17;;;21.00;65.00;;;;;;5070829;28;20040;-66
2023/05/13 07:22:49;;;;;;;5.10;2.50;;;21.00;65.00;;;;;;5071917;28;20040;-66
2023/05/13 07:25:16;;;;;;;5.38;3.42;;;21.00;65.00;;;;;;5072463;28;20051;-65
2023/05/13 07:27:41;;;;;;;5.28;3.25;;;21.00;65.00;;;;;;5072158;28;20514;-66
2023/05/13 07:30:08;;;;;;;4.53;2.95;;;21.00;65.00;;;;;;5072355;28;20073;-67
2023/05/13 07:32:35;;;;;;;4.28;3.28;;;21.00;65.00;;;;;;5072774;28;20033;-66
2023/05/13 07:35:01;;;;;;;5.25;3.00;;;21.00;64.90;;;;;;5072139;28;20040;-67
2023/05/13 07:37:26;;;;;;;4.55;3.28;;;21.00;65.00;;;;;;5072417;28;20032;-65
2023/05/13 07:39:52;;;;;;;8.00;3.47;;;21.00;65.00;;;;;;5071563;28;20581;-66
2023/05/13 07:42:18;;;;;;;5.55;3.30;;;21.10;65.10;;;;;;5071358;28;20606;-66
2023/05/13 07:44:44;;;;;;;4.30;2.97;;;21.10;65.10;;;;;;5072775;28;20498;-66
2023/05/13 07:47:09;;;;;;;4.80;2.95;;;21.10;65.10;;;;;;5070844;28;20393;-67
2023/05/13 07:49:35;;;;;;;5.53;3.00;;;21.10;65.10;;;;;;5071454;28;20064;-66
2023/05/13 07:52:00;;;;;;;4.88;3.13;;;21.10;65.20;;;;;;5072324;28;20044;-66
2023/05/13 07:54:26;;;;;;;4.00;3.08;;;21.20;65.10;;;;;;5070976;28;20059;-67
2023/05/13 07:56:52;;;;;;;3.55;2.80;;;21.20;65.20;;;;;;5070216;28;20395;-66
2023/05/13 07:59:17;;;;;;;5.22;3.15;;;21.20;65.20;;;;;;5072394;28;20056;-66
2023/05/13 08:01:43;;;;;;;6.63;3.63;;;21.20;65.20;;;;;;5071396;28;20097;-66
2023/05/13 08:04:09;;;;;;;4.15;2.95;;;21.20;65.10;;;;;;5071912;28;20044;-66
2023/05/13 08:06:34;;;;;;;4.32;2.90;;;21.20;65.10;;;;;;5071936;28;20075;-66
2023/05/13 08:09:00;;;;;;;4.25;3.00;;;21.30;65.20;;;;;;5071605;28;20044;-66
2023/05/13 08:11:26;;;;;;;3.92;3.10;;;21.30;65.20;;;;;;5070620;28;20080;-65
2023/05/13 08:13:52;;;;;;;4.57;3.00;;;21.30;65.20;;;;;;5070344;28;20040;-65
2023/05/13 08:16:17;;;;;;;3.60;3.00;;;21.30;65.20;;;;;;5070251;28;20123;-68
2023/05/13 08:18:43;;;;;;;4.35;2.90;;;21.30;65.00;;;;;;5070494;28;20036;-67
2023/05/13 08:21:08;;;;;;;4.20;3.17;;;21.30;64.90;;;;;;5052080;28;20067;-68
2023/05/13 08:23:35;;;;;;;3.95;3.05;;;21.30;64.80;;;;;;5050133;28;20061;-64
2023/05/13 08:26:01;;;;;;;9.93;3.83;;;21.30;64.70;;;;;;5052046;28;20115;-66
2023/05/13 08:28:28;;;;;;;6.05;3.50;;;21.40;64.80;;;;;;5052173;28;20476;-66
2023/05/13 08:30:54;;;;;;;5.95;3.45;;;21.30;64.80;;;;;;5051583;28;20584;-66
2023/05/13 08:33:19;;;;;;;8.68;3.53;;;21.40;64.90;;;;;;5052096;28;20124;-67
2023/05/13 08:35:45;;;;;;;5.65;3.22;;;21.40;65.00;;;;;;5052689;28;20037;-66
2023/05/13 08:38:11;;;;;;;7.07;3.40;;;21.40;65.00;;;;;;5051449;28;20037;-67
2023/05/13 08:40:37;;;;;;;7.53;3.53;;;21.40;65.00;;;;;;5052635;28;20045;-67
2023/05/13 08:43:03;;;;;;;7.55;3.75;;;21.40;64.90;;;;;;5052541;28;20049;-66
2023/05/13 08:45:29;;;;;;;7.00;3.70;;;21.50;65.00;;;;;;5049751;28;20045;-66
2023/05/13 08:47:55;;;;;;;6.93;3.67;;;21.50;65.00;;;;;;5051131;28;20082;-66
2023/05/13 08:50:21;;;;;;;7.40;3.50;;;21.50;65.00;;;;;;5051870;28;20041;-66
2023/05/13 08:52:49;;;;;;;7.78;3.70;;;21.50;64.90;;;;;;5033423;28;20044;-68
2023/05/13 08:55:14;;;;;;;6.95;4.00;;;21.50;64.90;;;;;;5034009;28;20060;-67
2023/05/13 08:57:40;;;;;;;6.30;2.95;;;21.50;64.80;;;;;;5051300;28;20041;-66
2023/05/13 09:00:06;;;;;;;5.88;3.40;;;21.50;64.70;;;;;;5056416;28;20049;-66
2023/05/13 09:02:32;;;;;;;5.20;3.30;;;21.60;64.80;;;;;;5042612;28;20120;-67
2023/05/13 09:05:00;;;;;;;10.25;3.38;;;21.60;64.80;;;;;;5051282;28;20199;-66
2023/05/13 09:07:25;;;;;;;;;;;21.60;64.80;;;;;;5070378;28;20083;-66
2023/05/13 09:09:51;;;;;;;7.30;3.40;;;21.60;64.80;;;;;;5054103;28;19968;-66
2023/05/13 09:12:44;;;;;;;6.35;3.10;;;21.60;64.70;;;;;;5064023;28;20059;-66
2023/05/13 09:15:10;;;;;;;5.22;3.22;;;21.60;64.80;;;;;;5062141;28;20097;-66
2023/05/13 09:17:41;;;;;;;5.22;3.10;;;21.60;64.70;;;;;;5055440;28;20041;-66
2023/05/13 09:20:09;;;;;;;6.72;3.83;;;21.60;64.70;;;;;;5058143;28;20408;-66
2023/05/13 09:22:34;;;;;;;7.90;3.20;;;21.60;64.70;;;;;;5071973;28;20044;-66
2023/05/13 09:25:00;;;;;;;6.97;3.53;;;21.60;64.70;;;;;;5070033;28;20056;-69
2023/05/13 09:27:40;;;;;;;6.10;3.50;;;21.60;64.70;;;;;;5070723;28;20048;-66
2023/05/13 09:30:06;;;;;;;9.95;4.13;;;21.60;64.70;;;;;;5071667;28;20076;-66
2023/05/13 09:32:32;;;;;;;5.25;3.20;;;21.60;64.70;;;;;;5071666;28;20377;-67
2023/05/13 09:35:06;;;;;;;8.05;3.22;;;21.60;64.80;;;;;;5069873;28;20051;-68
2023/05/13 09:37:32;;;;;;;7.38;3.70;;;21.70;64.80;;;;;;5055378;28;20441;-67
2023/05/13 09:39:57;;;;;;;5.82;3.65;;;21.70;64.80;;;;;;5073051;28;20087;-66
2023/05/13 09:42:23;;;;;;;6.53;3.08;;;21.70;64.90;;;;;;5072476;28;20047;-67
2023/05/13 09:44:48;;;;;;;5.15;3.35;;;21.70;64.80;;;;;;5056936;28;20072;-67
2023/05/13 09:47:14;;;;;;;6.57;3.22;;;21.70;64.80;;;;;;5072953;28;20577;-65
2023/05/13 09:49:44;;;;;;;7.15;3.38;;;21.70;64.80;;;;;;5075127;28;20041;-67
2023/05/13 09:52:10;;;;;;;12.20;4.00;;;21.70;64.70;;;;;;5073689;28;20071;-66
2023/05/13 09:54:39;;;;;;;11.90;3.83;;;21.70;64.80;;;;;;5081973;28;20036;-65
2023/05/13 09:57:05;;;;;;;8.60;3.50;;;21.70;64.90;;;;;;5094967;28;20068;-65
2023/05/13 09:59:34;;;;;;;10.65;3.42;;;21.70;64.90;;;;;;5080024;28;20079;-65
2023/05/13 10:02:04;;;;;;;9.25;3.40;;;21.70;65.00;;;;;;5053945;28;20106;-66
2023/05/13 10:04:30;;;;;;;11.13;4.10;;;21.70;65.00;;;;;;5063853;28;20048;-65
2023/05/13 10:06:57;;;;;;;6.00;3.45;;;21.80;65.00;;;;;;5074577;28;20044;-66
2023/05/13 10:09:23;;;;;;;9.23;3.80;;;21.70;65.00;;;;;;5055414;28;20037;-67
2023/05/13 10:11:48;;;;;;;7.60;3.70;;;21.80;65.00;;;;;;5056392;28;20048;-66
2023/05/13 10:14:14;;;;;;;6.95;3.40;;;21.80;65.00;;;;;;5073689;28;20036;-67
2023/05/13 10:16:40;;;;;;;6.53;3.70;;;21.80;65.00;;;;;;5055854;28;20072;-67
2023/05/13 10:19:06;;;;;;;7.05;3.60;;;21.80;65.00;;;;;;5052820;28;20037;-67
2023/05/13 10:21:31;;;;;;;7.63;3.33;;;21.80;64.90;;;;;;5052775;28;20135;-68
2023/05/13 10:23:57;;;;;;;8.13;3.70;;;21.80;65.00;;;;;;5063639;28;20093;-67
2023/05/13 10:26:23;;;;;;;6.45;3.15;;;21.80;65.00;;;;;;5073725;28;20063;-67
2023/05/13 10:28:49;;;;;;;9.18;3.40;;;21.80;65.00;;;;;;5070378;28;20049;-66
2023/05/13 10:31:16;;;;;;;8.68;3.85;;;21.90;65.00;;;;;;5071759;28;20040;-66
2023/05/13 10:33:41;;;;;;;6.00;3.33;;;21.90;64.90;;;;;;5073803;28;20478;-65
2023/05/13 10:36:44;;;;;;;5.93;3.28;;;21.90;64.80;;;;;;5073722;28;20087;-66
2023/05/13 10:39:26;;;;;;;8.45;3.75;;;21.90;64.70;;;;;;5073257;28;20037;-66
2023/05/13 10:42:20;;;;;;;10.00;3.70;;;21.90;64.70;;;;;;5072762;28;20396;-66
2023/05/13 10:44:46;;;;;;;7.03;3.50;;;21.90;64.70;;;;;;5055120;28;20098;-66
2023/05/13 10:47:12;;;;;;;8.18;3.80;;;21.90;64.70;;;;;;5038868;28;20041;-66
2023/05/13 10:49:38;;;;;;;5.05;3.15;;;21.90;64.70;;;;;;5055715;28;20060;-66
2023/05/13 10:52:08;;;;;;;6.18;3.63;;;21.90;64.70;;;;;;5071679;28;20076;-66
2023/05/13 10:54:38;;;;;;;8.18;3.40;;;21.90;64.70;;;;;;5073730;28;20080;-65
2023/05/13 10:57:03;;;;;;;7.03;3.08;;;21.90;64.80;;;;;;5073123;28;20126;-65
2023/05/13 10:59:29;;;;;;;7.97;3.25;;;21.90;64.80;;;;;;5070071;28;20071;-66
2023/05/13 11:01:55;;;;;;;7.30;3.33;;;21.90;64.70;;;;;;5073192;28;20116;-62
2023/05/13 11:04:21;;;;;;;7.15;3.75;;;21.90;64.70;;;;;;5071315;28;20045;-66
2023/05/13 11:06:47;;;;;;;7.95;3.10;;;21.90;64.70;;;;;;5072571;28;20072;-66
2023/05/13 11:09:14;;;;;;;6.90;3.45;;;21.90;64.70;;;;;;5071204;28;20506;-66
2023/05/13 11:11:40;;;;;;;9.15;3.83;;;21.90;64.70;;;;;;5070823;28;20475;-67
2023/05/13 11:14:18;;;;;;;8.73;3.58;;;21.90;64.60;;;;;;5071593;28;20044;-65
2023/05/13 11:16:45;;;;;;;5.97;3.20;;;21.90;64.60;;;;;;5072038;28;20047;-65
2023/05/13 11:19:18;;;;;;;8.48;3.38;;;21.90;64.50;;;;;;5071817;28;20040;-69
2023/05/13 11:21:46;;;;;;;9.82;3.92;;;21.90;64.40;;;;;;5073350;28;20488;-65
2023/05/13 11:24:15;;;;;;;5.38;3.40;;;21.90;64.40;;;;;;5055196;28;20491;-66
2023/05/13 11:26:55;;;;;;;7.25;3.75;;;21.90;64.30;;;;;;5071087;28;20438;-69
2023/05/13 11:29:28;;;;;;;6.95;3.75;;;21.90;63.90;;;;;;5066068;28;20052;-69
2023/05/13 11:31:56;;;;;;;7.65;3.60;;;21.90;63.80;;;;;;5066961;28;20055;-69
2023/05/13 11:34:21;;;;;;;7.50;3.55;;;21.90;64.40;;;;;;5070111;28;20033;-69
2023/05/13 11:36:55;;;;;;;9.52;3.70;;;21.90;63.70;;;;;;5072281;28;20048;-69
2023/05/13 11:39:21;;;;;;;8.73;3.75;;;21.90;63.60;;;;;;5071025;28;20403;-69
2023/05/13 11:41:49;;;;;;;8.57;3.20;;;21.90;63.70;;;;;;5072088;28;20047;-69
2023/05/13 11:44:20;;;;;;;6.47;3.53;;;21.90;63.60;;;;;;5072014;28;20063;-69
2023/05/13 11:46:56;;;;;;;7.00;3.28;;;21.90;63.60;;;;;;5072104;28;20080;-69
2023/05/13 11:49:32;;;;;;;9.20;3.33;;;21.90;63.50;;;;;;5071799;28;20120;-69
2023/05/13 11:52:11;;;;;;;5.75;3.55;;;21.90;63.50;;;;;;5072037;28;20488;-69
2023/05/13 11:54:52;;;;;;;7.75;3.88;;;21.80;63.40;;;;;;5071168;28;20051;-70
2023/05/13 11:57:19;;;;;;;4.93;3.35;;;21.80;63.50;;;;;;5076899;28;20044;-69
2023/05/13 11:59:52;;;;;;;5.85;3.40;;;21.80;63.50;;;;;;5082058;28;20040;-69
2023/05/13 12:02:28;;;;;;;8.32;3.17;;;21.80;63.40;;;;;;5070901;28;20051;-69
2023/05/13 12:04:53;;;;;;;5.70;3.08;;;21.80;63.30;;;;;;5071069;28;20135;-69
2023/05/13 12:07:23;;;;;;;6.03;3.53;;;21.80;63.40;;;;;;5071904;28;20174;-69
2023/05/13 12:09:50;;;;;;;7.60;3.70;;;21.80;63.30;;;;;;5071277;28;20048;-70
2023/05/13 12:12:16;;;;;;;4.63;2.85;;;21.80;63.30;;;;;;5070340;28;20052;-69
2023/05/13 12:14:45;;;;;;;6.25;3.20;;;21.80;63.30;;;;;;5071167;28;20046;-69
2023/05/13 12:17:14;;;;;;;5.68;3.55;;;21.80;63.30;;;;;;5054347;28;20483;-69
2023/05/13 12:19:44;;;;;;;5.35;3.40;;;21.80;63.30;;;;;;5050992;28;20041;-69
2023/05/13 12:22:09;;;;;;;4.53;3.08;;;21.80;63.20;;;;;;5033853;28;20060;-68
2023/05/13 12:24:35;;;;;;;5.60;3.20;;;21.80;63.30;;;;;;5060301;28;20040;-69
2023/05/13 12:27:06;;;;;;;5.07;3.28;;;21.80;63.30;;;;;;5070833;28;20068;-68
2023/05/13 12:29:41;;;;;;;6.55;2.97;;;21.80;63.20;;;;;;5071160;28;20047;-68
2023/05/13 12:32:13;;;;;;;6.55;3.45;;;21.80;63.10;;;;;;5071926;28;20037;-69
2023/05/13 12:34:38;;;;;;;4.43;3.30;;;21.80;63.10;;;;;;5050393;28;20511;-71
2023/05/13 12:37:11;;;;;;;8.45;3.33;;;21.80;63.10;;;;;;5066912;28;20069;-70
2023/05/13 12:39:37;;;;;;;4.88;2.90;;;21.80;63.10;;;;;;5074627;28;20479;-70
2023/05/13 12:42:03;;;;;;;6.03;2.85;;;21.80;63.10;;;;;;5072106;28;20041;-71
2023/05/13 12:44:29;;;;;;;5.30;3.08;;;21.80;63.10;;;;;;5070907;28;20051;-71
2023/05/13 12:46:58;;;;;;;4.70;3.22;;;21.80;63.10;;;;;;5037620;28;20123;-70